Time;durP1;ratioP1;P1;durP2;ratioP2;P2;SDS_P1;SDS_P2;PMS_P1;PMS_P2;Temp;Humidity;BMP_temperature;BMP_pressure;BME280_temperature;BME280_humidity;BME280_pressure;Samples;Min_cycle;Max_cycle;Signal;HPM_P1;HPM_P2
2022/02/06 00:00:55;;;;;;;;;;;7.90;99.90;;;;;;2092890;28;19908;-72
2022/02/06 00:01:56;;;;;;;;;;;7.90;99.90;;;;;;2100117;28;19909;-71
2022/02/06 00:02:57;;;;;;;;;;;7.90;99.90;;;;;;2102447;28;20004;-71
2022/02/06 00:03:58;;;;;;;;;;;7.90;99.90;;;;;;2101279;28;19912;-72
2022/02/06 00:04:59;;;;;;;;;;;7.90;99.90;;;;;;2105234;28;20021;-72
2022/02/06 00:06:00;;;;;;;;;;;7.90;99.90;;;;;;2104473;28;19920;-72
2022/02/06 00:07:01;;;;;;;;;;;7.80;99.90;;;;;;2099023;28;19913;-71
2022/02/06 00:08:06;;;;;;;;;;;7.90;99.90;;;;;;2101159;28;19909;-72
2022/02/06 00:09:06;;;;;;;;;;;7.90;99.90;;;;;;2104672;28;19916;-72
2022/02/06 00:10:07;;;;;;;;;;;7.90;99.90;;;;;;2099193;28;19966;-72
2022/02/06 00:11:08;;;;;;;;;;;7.90;99.90;;;;;;2101720;28;20004;-71
2022/02/06 00:12:08;;;;;;;;;;;7.80;99.90;;;;;;2102281;28;19934;-71
2022/02/06 00:13:09;;;;;;;;;;;7.90;99.90;;;;;;2101186;28;19919;-71
2022/02/06 00:14:09;;;;;;;;;;;7.80;99.90;;;;;;2102304;28;19945;-72
2022/02/06 00:15:10;;;;;;;;;;;7.80;99.90;;;;;;2099699;28;19919;-71
2022/02/06 00:16:10;;;;;;;;;;;7.90;99.90;;;;;;2090478;28;19932;-72
2022/02/06 00:17:11;;;;;;;;;;;7.80;99.90;;;;;;2094680;28;20367;-72
2022/02/06 00:18:11;;;;;;;;;;;7.80;99.90;;;;;;2098674;28;19919;-71
2022/02/06 00:19:12;;;;;;;;;;;7.90;99.90;;;;;;2101520;28;20031;-72
2022/02/06 00:20:14;;;;;;;;;;;7.80;99.90;;;;;;2104179;28;20276;-71
2022/02/06 00:21:17;;;;;;;;;;;7.90;99.90;;;;;;2103602;28;20348;-72
2022/02/06 00:22:29;;;;;;;;;;;7.90;99.90;;;;;;2103274;28;19923;-71
2022/02/06 00:23:31;;;;;;;;;;;7.80;99.90;;;;;;2102233;28;19908;-71
2022/02/06 00:24:42;;;;;;;;;;;7.80;99.90;;;;;;2100437;28;20302;-71
2022/02/06 00:25:59;;;;;;;;;;;7.80;99.90;;;;;;2105022;28;19912;-72
2022/02/06 00:27:05;;;;;;;;;;;7.80;99.90;;;;;;2100999;28;20259;-72
2022/02/06 00:28:18;;;;;;;;;;;7.90;99.90;;;;;;2098121;28;19909;-71
2022/02/06 00:29:37;;;;;;;;;;;7.80;99.90;;;;;;2099798;28;20249;-71
2022/02/06 00:31:54;;;;;;;;;;;7.80;99.90;;;;;;2098174;28;19947;-71
2022/02/06 00:39:08;;;;;;;;;;;7.80;99.90;;;;;;2101842;28;20291;-71
2022/02/06 00:40:09;;;;;;;;;;;7.80;99.90;;;;;;2101832;28;19917;-71
2022/02/06 00:41:14;;;;;;;;;;;7.80;99.90;;;;;;2109059;28;20416;-71
2022/02/06 00:42:14;;;;;;;;;;;7.80;99.90;;;;;;2112124;28;19922;-72
2022/02/06 00:43:15;;;;;;;;;;;7.80;99.90;;;;;;2101666;28;20014;-71
2022/02/06 00:44:15;;;;;;;;;;;7.80;99.90;;;;;;2099392;28;20765;-72
2022/02/06 00:45:16;;;;;;;;;;;7.80;99.90;;;;;;2103201;28;19908;-72
2022/02/06 00:46:18;;;;;;;;;;;7.80;99.90;;;;;;2100622;28;19951;-71
2022/02/06 00:47:18;;;;;;;;;;;7.80;99.90;;;;;;2102160;28;19964;-72
2022/02/06 00:48:23;;;;;;;;;;;7.80;99.90;;;;;;2092485;28;19909;-72
2022/02/06 00:49:27;;;;;;;;;;;7.80;99.90;;;;;;2086440;28;19908;-72
2022/02/06 00:50:29;;;;;;;;;;;7.80;99.90;;;;;;2093334;28;19924;-71
2022/02/06 00:52:52;;;;;;;;;;;7.80;99.90;;;;;;2104043;28;19916;-71
2022/02/06 00:53:53;;;;;;;;;;;7.80;99.90;;;;;;2098275;28;19909;-71
2022/02/06 00:54:53;;;;;;;;;;;7.80;99.90;;;;;;2101483;28;19909;-71
2022/02/06 00:55:54;;;;;;;;;;;7.80;99.90;;;;;;2088985;28;19916;-72
2022/02/06 00:56:54;;;;;;;;;;;7.80;99.90;;;;;;2095442;28;20361;-71
2022/02/06 00:57:55;;;;;;;;;;;7.80;99.90;;;;;;2102003;28;19913;-71
2022/02/06 00:58:55;;;;;;;;;;;7.80;99.90;;;;;;2100259;28;19934;-71
2022/02/06 00:59:55;;;;;;;;;;;7.80;99.90;;;;;;2102382;28;20439;-71
2022/02/06 01:00:56;;;;;;;;;;;7.80;99.90;;;;;;2101010;28;20030;-72
2022/02/06 01:01:56;;;;;;;;;;;7.80;99.90;;;;;;2108032;28;20299;-71
2022/02/06 01:02:57;;;;;;;;;;;7.80;99.90;;;;;;2112450;28;19969;-72
2022/02/06 01:03:57;;;;;;;;;;;7.80;99.90;;;;;;2094275;28;19916;-72
2022/02/06 01:04:58;;;;;;;;;;;7.80;99.90;;;;;;2091253;28;19908;-72
2022/02/06 01:05:58;;;;;;;;;;;7.80;99.90;;;;;;2101352;28;19993;-71
2022/02/06 01:06:59;;;;;;;;;;;7.80;99.90;;;;;;2096612;28;19995;-72
2022/02/06 01:07:59;;;;;;;;;;;7.80;99.90;;;;;;2101556;28;20348;-72
2022/02/06 01:09:00;;;;;;;;;;;7.80;99.90;;;;;;2109431;28;19988;-71
2022/02/06 01:10:00;;;;;;;;;;;7.80;99.90;;;;;;2102202;28;19957;-72
2022/02/06 01:11:05;;;;;;;;;;;7.80;99.90;;;;;;2103536;28;19909;-72
2022/02/06 01:12:06;;;;;;;;;;;7.80;99.90;;;;;;2100182;28;19931;-72
2022/02/06 01:13:19;;;;;;;;;;;7.80;99.90;;;;;;2099029;28;19948;-72
2022/02/06 01:15:32;;;;;;;;;;;7.80;99.90;;;;;;2099935;28;20392;-71
2022/02/06 01:16:38;;;;;;;;;;;7.80;99.90;;;;;;2104920;28;19916;-72
2022/02/06 01:17:48;;;;;;;;;;;7.80;99.90;;;;;;2101305;28;19913;-71
2022/02/06 01:18:58;;;;;;;;;;;7.80;99.90;;;;;;2109214;28;20283;-72
2022/02/06 01:20:04;;;;;;;;;;;7.80;99.90;;;;;;2109823;28;19955;-72
2022/02/06 01:21:14;;;;;;;;;;;7.80;99.90;;;;;;2102179;28;20284;-72
2022/02/06 01:22:19;;;;;;;;;;;7.80;99.90;;;;;;2101449;28;19954;-71
2022/02/06 01:23:37;;;;;;;;;;;7.80;99.90;;;;;;2099746;28;19948;-71
2022/02/06 01:25:53;;;;;;;;;;;7.80;99.90;;;;;;2100816;28;20090;-71
2022/02/06 01:27:00;;;;;;;;;;;7.80;99.90;;;;;;2101685;28;19962;-71
2022/02/06 01:28:05;;;;;;;;;;;7.80;99.90;;;;;;2099042;28;19916;-71
2022/02/06 01:29:27;;;;;;;;;;;7.80;99.90;;;;;;2102154;28;19909;-72
2022/02/06 01:31:53;;;;;;;;;;;7.80;99.90;;;;;;2100501;28;19970;-71
2022/02/06 01:33:02;;;;;;;;;;;7.80;99.90;;;;;;2102665;28;19909;-71
2022/02/06 01:34:04;;;;;;;;;;;7.80;99.90;;;;;;2101484;28;19962;-71
2022/02/06 01:35:13;;;;;;;;;;;7.80;99.90;;;;;;2091465;28;20409;-72
2022/02/06 01:36:26;;;;;;;;;;;7.80;99.90;;;;;;2099706;28;19909;-72
2022/02/06 01:37:37;;;;;;;;;;;7.80;99.90;;;;;;2101382;28;19931;-72
2022/02/06 01:39:00;;;;;;;;;;;7.80;99.90;;;;;;2098751;28;19916;-71
2022/02/06 01:40:14;;;;;;;;;;;7.90;99.90;;;;;;2100707;28;19962;-72
2022/02/06 01:41:21;;;;;;;;;;;7.80;99.90;;;;;;2101045;28;19919;-72
2022/02/06 01:43:40;;;;;;;;;;;7.80;99.90;;;;;;2102855;28;19914;-72
2022/02/06 02:06:53;;;;;;;;;;;7.90;99.90;;;;;;2091263;28;20063;-72
2022/02/06 02:09:24;;;;;;;;;;;7.90;99.90;;;;;;2100181;28;19931;-72
2022/02/06 02:11:57;;;;;;;;;;;7.80;99.90;;;;;;2103979;28;19915;-72
2022/02/06 02:14:37;;;;;;;;;;;7.90;99.90;;;;;;2104401;28;19908;-72
2022/02/06 02:18:43;;;;;;;;;;;7.90;99.90;;;;;;2102292;28;19908;-72
2022/02/06 02:22:42;;;;;;;;;;;7.90;99.90;;;;;;2102392;28;20415;-72
2022/02/06 02:30:12;;;;;;;;;;;7.90;99.90;;;;;;2106031;28;19915;-72
2022/02/06 02:46:56;;;;;;;;;;;7.90;99.90;;;;;;2106838;28;19916;-72
2022/02/06 02:48:04;;;;;;;;;;;7.90;99.90;;;;;;2108374;28;20256;-72
2022/02/06 02:49:08;;;;;;;;;;;7.90;99.90;;;;;;2102564;28;19916;-72
2022/02/06 02:50:15;;;;;;;;;;;7.90;99.90;;;;;;2093058;28;19912;-72
2022/02/06 02:51:18;;;;;;;;;;;7.90;99.90;;;;;;2103727;28;19908;-72
2022/02/06 02:52:42;;;;;;;;;;;7.90;99.90;;;;;;2107280;28;19908;-73
2022/02/06 02:53:51;;;;;;;;;;;7.90;99.90;;;;;;2106272;28;19912;-72
2022/02/06 02:55:00;;;;;;;;;;;7.90;99.90;;;;;;2109709;28;19916;-72
2022/02/06 02:57:24;;;;;;;;;;;7.90;99.90;;;;;;2098292;28;19920;-72
2022/02/06 02:58:43;;;;;;;;;;;7.90;99.90;;;;;;2105310;28;19920;-72
2022/02/06 03:00:04;;;;;;;;;;;7.90;99.90;;;;;;2096869;28;20003;-72
2022/02/06 03:01:19;;;;;;;;;;;7.90;99.90;;;;;;2106584;28;19915;-72
2022/02/06 03:02:21;;;;;;;;;;;7.90;99.90;;;;;;2110832;28;19922;-72
2022/02/06 03:03:27;;;;;;;;;;;7.90;99.90;;;;;;2097138;28;20555;-72
2022/02/06 03:04:27;;;;;;;;;;;7.90;99.90;;;;;;2095732;28;19984;-72
2022/02/06 03:05:29;;;;;;;;;;;7.90;99.90;;;;;;2100909;28;19920;-72
2022/02/06 03:06:29;;;;;;;;;;;7.90;99.90;;;;;;2097228;28;20410;-72
2022/02/06 03:07:30;;;;;;;;;;;7.90;99.90;;;;;;2095555;28;20428;-72
2022/02/06 03:08:32;;;;;;;;;;;7.90;99.90;;;;;;2099130;28;19912;-72
2022/02/06 03:09:38;;;;;;;;;;;7.90;99.90;;;;;;2108461;28;19974;-72
2022/02/06 03:10:39;;;;;;;;;;;7.90;99.90;;;;;;2112031;28;19919;-72
2022/02/06 03:11:39;;;;;;;;;;;7.90;99.90;;;;;;2099018;28;20540;-72
2022/02/06 03:12:46;;;;;;;;;;;7.90;99.90;;;;;;2103826;28;19951;-72
2022/02/06 03:14:03;;;;;;;;;;;7.90;99.90;;;;;;2102390;28;20582;-72
2022/02/06 03:15:19;;;;;;;;;;;8.00;99.90;;;;;;2102655;28;20272;-72
2022/02/06 03:16:24;;;;;;;;;;;8.00;99.90;;;;;;2093785;28;20003;-72
2022/02/06 03:17:37;;;;;;;;;;;8.00;99.90;;;;;;2093812;28;20372;-72
2022/02/06 03:18:45;;;;;;;;;;;7.90;99.90;;;;;;2101013;28;20253;-72
2022/02/06 03:19:53;;;;;;;;;;;8.00;99.90;;;;;;2102439;28;19999;-72
2022/02/06 03:20:55;;;;;;;;;;;8.00;99.90;;;;;;2104369;28;20277;-72
2022/02/06 03:21:55;;;;;;;;;;;7.90;99.90;;;;;;2101019;28;20824;-72
2022/02/06 03:23:00;;;;;;;;;;;7.90;99.90;;;;;;2102606;28;20078;-72
2022/02/06 03:25:20;;;;;;;;;;;7.90;99.90;;;;;;2102595;28;20315;-72
2022/02/06 03:26:22;;;;;;;;;;;7.90;99.90;;;;;;2102135;28;19912;-72
2022/02/06 03:27:23;;;;;;;;;;;7.90;99.90;;;;;;2099257;28;19954;-72
2022/02/06 03:28:24;;;;;;;;;;;7.90;99.90;;;;;;2102960;28;20413;-72
2022/02/06 03:29:25;;;;;;;;;;;7.90;99.90;;;;;;2100091;28;19916;-72
2022/02/06 03:30:29;;;;;;;;;;;7.90;99.90;;;;;;2101925;28;20465;-72
2022/02/06 03:31:30;;;;;;;;;;;7.90;99.90;;;;;;2107962;28;20428;-72
2022/02/06 03:32:30;;;;;;;;;;;7.90;99.90;;;;;;2113613;28;20510;-72
2022/02/06 03:33:31;;;;;;;;;;;7.90;99.90;;;;;;2095999;28;20391;-71
2022/02/06 03:34:31;;;;;;;;;;;8.00;99.90;;;;;;2098674;28;19916;-72
2022/02/06 03:35:32;;;;;;;;;;;8.00;99.90;;;;;;2105926;28;19973;-72
2022/02/06 03:36:32;;;;;;;;;;;8.00;99.90;;;;;;2102368;28;20325;-72
2022/02/06 03:37:33;;;;;;;;;;;7.90;99.90;;;;;;2103818;28;19912;-72
2022/02/06 03:38:33;;;;;;;;;;;7.90;99.90;;;;;;2098316;28;20333;-72
2022/02/06 03:39:36;;;;;;;;;;;7.90;99.90;;;;;;2101945;28;19919;-72
2022/02/06 03:41:22;;;;;;;;;;;7.90;99.90;;;;;;2100430;28;20344;-72
2022/02/06 03:42:09;;;;;;;;;;;8.00;99.90;;;;;;2098832;28;19913;-72
2022/02/06 03:43:17;;;;;;;;;;;7.90;99.90;;;;;;2103789;28;20329;-72
2022/02/06 03:44:24;;;;;;;;;;;7.90;99.90;;;;;;2102085;28;20481;-72
2022/02/06 03:45:31;;;;;;;;;;;8.00;99.90;;;;;;2106783;28;19915;-72
2022/02/06 03:46:38;;;;;;;;;;;7.90;99.90;;;;;;2112167;28;20475;-71
2022/02/06 03:47:50;;;;;;;;;;;8.00;99.90;;;;;;2099838;28;19913;-72
2022/02/06 03:49:05;;;;;;;;;;;7.90;99.90;;;;;;2098619;28;19916;-72
2022/02/06 03:50:06;;;;;;;;;;;8.00;99.90;;;;;;2096774;28;19908;-72
2022/02/06 03:51:16;;;;;;;;;;;8.00;99.90;;;;;;2095353;28;19998;-72
2022/02/06 03:52:18;;;;;;;;;;;7.90;99.90;;;;;;2109800;28;19920;-72
2022/02/06 03:53:21;;;;;;;;;;;7.90;99.90;;;;;;2111070;28;20475;-72
2022/02/06 03:54:23;;;;;;;;;;;7.90;99.90;;;;;;2102354;28;19912;-72
2022/02/06 03:55:24;;;;;;;;;;;7.90;99.90;;;;;;2098649;28;19989;-72
2022/02/06 03:56:26;;;;;;;;;;;7.90;99.90;;;;;;2104447;28;19931;-72
2022/02/06 03:57:27;;;;;;;;;;;7.90;99.90;;;;;;2102492;28;20352;-72
2022/02/06 03:58:27;;;;;;;;;;;7.90;99.90;;;;;;2100744;28;20291;-72
2022/02/06 03:59:28;;;;;;;;;;;7.90;99.90;;;;;;2101794;28;19970;-72
2022/02/06 04:00:28;;;;;;;;;;;7.90;99.90;;;;;;2100866;28;20366;-72
2022/02/06 04:01:29;;;;;;;;;;;7.90;99.90;;;;;;2102140;28;19908;-72
2022/02/06 04:02:29;;;;;;;;;;;7.90;99.90;;;;;;2101512;28;19935;-72
2022/02/06 04:03:30;;;;;;;;;;;7.90;99.90;;;;;;2103779;28;20272;-72
2022/02/06 04:04:30;;;;;;;;;;;7.90;99.90;;;;;;2100707;28;19908;-72
2022/02/06 04:05:31;;;;;;;;;;;7.90;99.90;;;;;;2102548;28;19965;-72
2022/02/06 04:06:31;;;;;;;;;;;7.90;99.90;;;;;;2104152;28;19958;-73
2022/02/06 04:07:32;;;;;;;;;;;7.90;99.90;;;;;;2091933;28;20311;-72
2022/02/06 04:08:35;;;;;;;;;;;8.00;99.90;;;;;;2088687;28;19912;-72
2022/02/06 04:09:43;;;;;;;;;;;7.90;99.90;;;;;;2099925;28;19924;-72
2022/02/06 04:10:48;;;;;;;;;;;7.90;99.90;;;;;;2102191;28;19912;-72
2022/02/06 04:11:52;;;;;;;;;;;7.90;99.90;;;;;;2098050;28;19974;-72
2022/02/06 04:12:52;;;;;;;;;;;7.90;99.90;;;;;;2102393;28;19915;-72
2022/02/06 04:14:20;;;;;;;;;;;7.90;99.90;;;;;;2100070;28;19919;-72
2022/02/06 04:15:25;;;;;;;;;;;7.90;99.90;;;;;;2099860;28;19908;-72
2022/02/06 04:16:37;;;;;;;;;;;7.90;99.90;;;;;;2098903;28;19912;-72
2022/02/06 04:17:46;;;;;;;;;;;7.90;99.90;;;;;;2097260;28;20356;-72
2022/02/06 04:18:53;;;;;;;;;;;7.90;99.90;;;;;;2101420;28;20359;-72
2022/02/06 04:19:54;;;;;;;;;;;7.90;99.90;;;;;;2109193;28;19935;-72
2022/02/06 04:20:54;;;;;;;;;;;7.90;99.90;;;;;;2105384;28;19995;-72
2022/02/06 04:21:56;;;;;;;;;;;7.90;99.90;;;;;;2104207;28;19912;-72
2022/02/06 04:22:57;;;;;;;;;;;7.90;99.90;;;;;;2100760;28;20008;-72
2022/02/06 04:23:57;;;;;;;;;;;7.90;99.90;;;;;;2102452;28;19916;-72
2022/02/06 04:24:57;;;;;;;;;;;7.90;99.90;;;;;;2099226;28;20241;-72
2022/02/06 04:25:58;;;;;;;;;;;7.90;99.90;;;;;;2100467;28;19983;-72
2022/02/06 04:26:58;;;;;;;;;;;8.00;99.90;;;;;;2099916;28;19912;-72
2022/02/06 04:27:59;;;;;;;;;;;7.90;99.90;;;;;;2099029;28;19920;-72
2022/02/06 04:28:59;;;;;;;;;;;7.90;99.90;;;;;;2099451;28;19908;-72
2022/02/06 04:30:00;;;;;;;;;;;8.00;99.90;;;;;;2105641;28;20474;-72
2022/02/06 04:31:01;;;;;;;;;;;7.90;99.90;;;;;;2100922;28;19943;-72
2022/02/06 04:32:05;;;;;;;;;;;8.00;99.90;;;;;;2101843;28;19908;-72
2022/02/06 04:33:06;;;;;;;;;;;7.90;99.90;;;;;;2104873;28;19920;-72
2022/02/06 04:34:07;;;;;;;;;;;7.90;99.90;;;;;;2103635;28;19915;-72
2022/02/06 04:35:14;;;;;;;;;;;7.90;99.90;;;;;;2095332;28;19919;-72
2022/02/06 04:36:15;;;;;;;;;;;7.90;99.90;;;;;;2092968;28;19908;-72
2022/02/06 04:37:26;;;;;;;;;;;7.90;99.90;;;;;;2104834;28;19948;-72
2022/02/06 04:38:51;;;;;;;;;;;7.90;99.90;;;;;;2101954;28;19912;-72
2022/02/06 04:40:07;;;;;;;;;;;7.90;99.90;;;;;;2113629;28;19927;-72
2022/02/06 04:48:33;;;;;;;;;;;8.00;99.90;;;;;;2103742;28;19916;-72
2022/02/06 04:52:09;;;;;;;;;;;8.00;99.90;;;;;;2105254;28;19974;-72
2022/02/06 05:15:11;;;;;;;;;;;8.00;99.90;;;;;;2099455;28;19916;-72
2022/02/06 05:16:23;;;;;;;;;;;8.00;99.90;;;;;;2101802;28;19919;-72
2022/02/06 05:21:13;;;;;;;;;;;8.00;99.90;;;;;;2101274;28;20039;-72
2022/02/06 05:22:44;;;;;;;;;;;8.00;99.90;;;;;;2100509;28;19916;-72
2022/02/06 05:28:38;;;;;;;;;;;8.00;99.90;;;;;;2101095;28;19908;-72
2022/02/06 05:30:03;;;;;;;;;;;8.00;99.90;;;;;;2101113;28;19915;-72
2022/02/06 05:31:08;;;;;;;;;;;8.00;99.90;;;;;;2089712;28;19909;-73
2022/02/06 05:33:12;;;;;;;;;;;8.00;99.90;;;;;;2104785;28;19919;-72
2022/02/06 05:34:12;;;;;;;;;;;8.00;99.90;;;;;;2104791;28;19908;-72
2022/02/06 05:35:12;;;;;;;;;;;8.00;99.90;;;;;;2102498;28;19916;-72
2022/02/06 05:36:13;;;;;;;;;;;8.00;99.90;;;;;;2098571;28;19908;-72
2022/02/06 05:37:13;;;;;;;;;;;8.10;99.90;;;;;;2105442;28;19923;-72
2022/02/06 05:38:14;;;;;;;;;;;8.10;99.90;;;;;;2101905;28;19916;-71
2022/02/06 05:39:14;;;;;;;;;;;8.00;99.90;;;;;;2098624;28;19915;-72
2022/02/06 05:40:15;;;;;;;;;;;8.10;99.90;;;;;;2101022;28;20065;-72
2022/02/06 05:41:16;;;;;;;;;;;8.10;99.90;;;;;;2109002;28;20736;-71
2022/02/06 05:42:17;;;;;;;;;;;8.10;99.90;;;;;;2108069;28;19955;-72
2022/02/06 05:43:17;;;;;;;;;;;8.10;99.90;;;;;;2101071;28;19969;-72
2022/02/06 05:44:18;;;;;;;;;;;8.10;99.90;;;;;;2099167;28;20344;-72
2022/02/06 05:45:20;;;;;;;;;;;8.10;99.90;;;;;;2101716;28;19915;-72
2022/02/06 05:46:21;;;;;;;;;;;8.10;99.90;;;;;;2100310;28;20326;-72
2022/02/06 05:47:22;;;;;;;;;;;8.10;99.90;;;;;;2097966;28;20378;-72
2022/02/06 05:48:22;;;;;;;;;;;8.10;99.90;;;;;;2100899;28;19912;-72
2022/02/06 05:49:23;;;;;;;;;;;8.10;99.90;;;;;;2099496;28;19908;-72
2022/02/06 05:50:23;;;;;;;;;;;8.10;99.90;;;;;;2099579;28;19912;-72
2022/02/06 05:51:24;;;;;;;;;;;8.10;99.90;;;;;;2102394;28;20395;-71
2022/02/06 05:52:25;;;;;;;;;;;8.10;99.90;;;;;;2102585;28;19908;-72
2022/02/06 05:53:25;;;;;;;;;;;8.10;99.90;;;;;;2104519;28;19963;-72
2022/02/06 05:54:26;;;;;;;;;;;8.10;99.90;;;;;;2101983;28;19919;-72
2022/02/06 05:55:26;;;;;;;;;;;8.10;99.90;;;;;;2105305;28;19992;-72
2022/02/06 05:56:27;;;;;;;;;;;8.10;99.90;;;;;;2110683;28;19941;-72
2022/02/06 05:57:27;;;;;;;;;;;8.10;99.90;;;;;;2090554;28;20328;-72
2022/02/06 05:58:28;;;;;;;;;;;8.10;99.90;;;;;;2090178;28;19919;-72
2022/02/06 05:59:28;;;;;;;;;;;8.20;99.90;;;;;;2103590;28;19916;-72
2022/02/06 06:00:29;;;;;;;;;;;8.10;99.90;;;;;;2105519;28;19979;-71
2022/02/06 06:01:29;;;;;;;;;;;8.10;99.90;;;;;;2108778;28;19914;-71
2022/02/06 06:02:30;;;;;;;;;;;8.10;99.90;;;;;;2108509;28;19919;-72
2022/02/06 06:03:30;;;;;;;;;;;8.10;99.90;;;;;;2109408;28;19918;-72
2022/02/06 06:04:31;;;;;;;;;;;8.10;99.90;;;;;;2101797;28;19954;-72
2022/02/06 06:05:31;;;;;;;;;;;8.10;99.90;;;;;;2099439;28;19913;-72
2022/02/06 06:06:35;;;;;;;;;;;8.10;99.90;;;;;;2104236;28;19926;-72
2022/02/06 06:07:40;;;;;;;;;;;8.20;99.90;;;;;;2104447;28;19982;-71
2022/02/06 06:08:40;;;;;;;;;;;8.10;99.90;;;;;;2100803;28;19955;-72
2022/02/06 06:09:41;;;;;;;;;;;8.10;99.90;;;;;;2098934;28;20006;-72
2022/02/06 06:10:42;;;;;;;;;;;8.10;99.90;;;;;;2102421;28;19912;-72
2022/02/06 06:11:42;;;;;;;;;;;8.10;99.90;;;;;;2095453;28;19920;-72
2022/02/06 06:12:43;;;;;;;;;;;8.10;99.90;;;;;;2096172;28;20011;-71
2022/02/06 06:13:43;;;;;;;;;;;8.10;99.90;;;;;;2102588;28;20027;-72
2022/02/06 06:14:46;;;;;;;;;;;8.10;99.90;;;;;;2100604;28;19908;-72
2022/02/06 06:15:47;;;;;;;;;;;8.20;99.90;;;;;;2100360;28;20343;-72
2022/02/06 06:16:47;;;;;;;;;;;8.20;99.90;;;;;;2099383;28;19912;-72
2022/02/06 06:17:48;;;;;;;;;;;8.20;99.90;;;;;;2102400;28;20481;-72
2022/02/06 06:18:48;;;;;;;;;;;8.10;99.90;;;;;;2100800;28;19908;-72
2022/02/06 06:19:49;;;;;;;;;;;8.10;99.90;;;;;;2101089;28;20355;-72
2022/02/06 06:20:51;;;;;;;;;;;8.10;99.90;;;;;;2096965;28;19920;-72
2022/02/06 06:21:56;;;;;;;;;;;8.10;99.90;;;;;;2102096;28;19927;-72
2022/02/06 06:22:57;;;;;;;;;;;8.20;99.90;;;;;;2099088;28;19912;-72
2022/02/06 06:23:59;;;;;;;;;;;8.10;99.90;;;;;;2100619;28;19917;-72
2022/02/06 06:25:02;;;;;;;;;;;8.10;99.90;;;;;;2100964;28;19970;-72
2022/02/06 06:26:03;;;;;;;;;;;8.10;99.90;;;;;;2098620;28;20011;-72
2022/02/06 06:27:03;;;;;;;;;;;8.10;99.90;;;;;;2101120;28;19915;-72
2022/02/06 06:28:04;;;;;;;;;;;8.10;99.90;;;;;;2106841;28;19908;-72
2022/02/06 06:29:05;;;;;;;;;;;8.10;99.90;;;;;;2110343;28;19912;-72
2022/02/06 06:30:05;;;;;;;;;;;8.10;99.90;;;;;;2100199;28;20616;-72
2022/02/06 06:31:06;;;;;;;;;;;8.10;99.90;;;;;;2100418;28;19912;-72
2022/02/06 06:32:07;;;;;;;;;;;8.20;99.90;;;;;;2099546;28;19908;-72
2022/02/06 06:33:07;;;;;;;;;;;8.10;99.90;;;;;;2100868;28;19966;-72
2022/02/06 06:34:08;;;;;;;;;;;8.10;99.90;;;;;;2101604;28;19951;-72
2022/02/06 06:35:08;;;;;;;;;;;8.10;99.90;;;;;;2101527;28;19913;-72
2022/02/06 06:36:09;;;;;;;;;;;8.20;99.90;;;;;;2100629;28;19947;-72
2022/02/06 06:37:09;;;;;;;;;;;8.10;99.90;;;;;;2095415;28;20324;-72
2022/02/06 06:38:10;;;;;;;;;;;8.20;99.90;;;;;;2104720;28;19912;-72
2022/02/06 06:39:10;;;;;;;;;;;8.20;99.90;;;;;;2102621;28;19998;-72
2022/02/06 06:40:11;;;;;;;;;;;8.20;99.90;;;;;;2101366;28;20352;-72
2022/02/06 06:41:11;;;;;;;;;;;8.20;99.90;;;;;;2114897;27;20407;-72
2022/02/06 06:42:14;;;;;;;;;;;8.20;99.90;;;;;;2112456;28;20379;-72
2022/02/06 06:43:14;;;;;;;;;;;8.20;99.90;;;;;;2108851;28;19908;-72
2022/02/06 06:44:15;;;;;;;;;;;8.20;99.90;;;;;;2105146;28;19908;-72
2022/02/06 06:45:15;;;;;;;;;;;8.20;99.90;;;;;;2096852;28;19919;-72
2022/02/06 06:46:16;;;;;;;;;;;8.20;99.90;;;;;;2100844;28;19916;-72
2022/02/06 06:47:16;;;;;;;;;;;8.20;99.90;;;;;;2099372;28;19982;-72
2022/02/06 06:48:17;;;;;;;;;;;8.20;99.90;;;;;;2100695;28;20011;-72
2022/02/06 06:49:17;;;;;;;;;;;8.20;99.90;;;;;;2099527;28;19973;-72
2022/02/06 06:50:18;;;;;;;;;;;8.20;99.90;;;;;;2101706;28;19927;-72
2022/02/06 06:51:18;;;;;;;;;;;8.20;99.90;;;;;;2098472;28;19919;-72
2022/02/06 06:52:18;;;;;;;;;;;8.20;99.90;;;;;;2103527;28;19916;-72
2022/02/06 06:53:19;;;;;;;;;;;8.20;99.90;;;;;;2101181;28;20010;-72
2022/02/06 06:54:22;;;;;;;;;;;8.20;99.90;;;;;;2101272;28;19916;-72
2022/02/06 06:55:23;;;;;;;;;;;8.20;99.90;;;;;;2098759;28;20347;-72
2022/02/06 06:56:38;;;;;;;;;;;8.20;99.90;;;;;;2089068;28;19948;-73
2022/02/06 06:57:43;;;;;;;;;;;8.20;99.90;;;;;;2094380;28;19994;-72
2022/02/06 06:58:47;;;;;;;;;;;8.20;99.90;;;;;;2105823;28;19995;-72
2022/02/06 07:01:20;;;;;;;;;;;8.20;99.90;;;;;;2100580;28;19920;-72
2022/02/06 07:02:27;;;;;;;;;;;8.20;99.90;;;;;;2101321;28;19971;-72
2022/02/06 07:03:27;;;;;;;;;;;8.20;99.90;;;;;;2100592;28;19912;-72
2022/02/06 07:04:27;;;;;;;;;;;8.20;99.90;;;;;;2102664;28;19912;-72
2022/02/06 07:05:28;;;;;;;;;;;8.20;99.90;;;;;;2092918;28;20332;-72
2022/02/06 07:06:28;;;;;;;;;;;8.20;99.90;;;;;;2094832;28;20779;-72
2022/02/06 07:07:32;;;;;;;;;;;8.30;99.90;;;;;;2100182;28;20397;-72
2022/02/06 07:08:33;;;;;;;;;;;8.30;99.90;;;;;;2102712;28;19912;-72
2022/02/06 07:09:33;;;;;;;;;;;8.20;99.90;;;;;;2098771;28;19917;-72
2022/02/06 07:10:33;;;;;;;;;;;8.30;99.90;;;;;;2102662;28;20403;-72
2022/02/06 07:11:34;;;;;;;;;;;8.30;99.90;;;;;;2097795;28;20011;-72
2022/02/06 07:12:35;;;;;;;;;;;8.30;99.90;;;;;;2096305;28;19959;-72
2022/02/06 07:13:35;;;;;;;;;;;8.30;99.90;;;;;;2100404;28;19923;-72
2022/02/06 07:14:36;;;;;;;;;;;8.30;99.90;;;;;;2102444;28;19964;-72
2022/02/06 07:15:36;;;;;;;;;;;8.30;99.90;;;;;;2104605;28;20505;-72
2022/02/06 07:16:37;;;;;;;;;;;8.30;99.90;;;;;;2104344;28;19934;-72
2022/02/06 07:17:37;;;;;;;;;;;8.30;99.90;;;;;;2098440;28;20024;-72
2022/02/06 07:18:38;;;;;;;;;;;8.30;99.90;;;;;;2108338;28;20000;-72
2022/02/06 07:19:39;;;;;;;;;;;8.30;99.90;;;;;;2110557;28;19916;-72
2022/02/06 07:20:39;;;;;;;;;;;8.30;99.90;;;;;;2101205;28;19952;-72
2022/02/06 07:21:40;;;;;;;;;;;8.30;99.90;;;;;;2098375;28;19918;-72
2022/02/06 07:22:40;;;;;;;;;;;8.30;99.90;;;;;;2101859;28;20039;-72
2022/02/06 07:23:41;;;;;;;;;;;8.30;99.90;;;;;;2104137;28;20045;-72
2022/02/06 07:24:46;;;;;;;;;;;8.30;99.90;;;;;;2097164;28;19908;-72
2022/02/06 07:25:50;;;;;;;;;;;8.30;99.90;;;;;;2096290;28;19943;-72
2022/02/06 07:26:53;;;;;;;;;;;8.30;99.90;;;;;;2101356;28;19916;-72
2022/02/06 07:27:54;;;;;;;;;;;8.30;99.90;;;;;;2111680;28;19971;-72
2022/02/06 07:28:59;;;;;;;;;;;8.30;99.90;;;;;;2110667;28;19960;-72
2022/02/06 07:30:04;;;;;;;;;;;8.30;99.90;;;;;;2097373;28;19912;-72
2022/02/06 07:31:04;;;;;;;;;;;8.30;99.90;;;;;;2100732;28;19912;-72
2022/02/06 07:32:05;;;;;;;;;;;8.30;99.90;;;;;;2103711;28;20017;-72
2022/02/06 07:33:05;;;;;;;;;;;8.30;99.90;;;;;;2106945;28;19916;-72
2022/02/06 07:34:05;;;;;;;;;;;8.30;99.90;;;;;;2096606;28;19948;-72
2022/02/06 07:35:08;;;;;;;;;;;8.40;99.90;;;;;;2095837;28;19955;-72
2022/02/06 07:36:09;;;;;;;;;;;8.30;99.90;;;;;;2100156;28;19955;-72
2022/02/06 07:37:09;;;;;;;;;;;8.40;99.90;;;;;;2101214;28;20418;-72
2022/02/06 07:38:11;;;;;;;;;;;8.40;99.90;;;;;;2095611;28;19916;-71
2022/02/06 07:39:12;;;;;;;;;;;8.40;99.90;;;;;;2097849;28;19923;-72
2022/02/06 07:40:12;;;;;;;;;;;8.40;99.90;;;;;;2104260;28;19912;-72
2022/02/06 07:41:13;;;;;;;;;;;8.40;99.90;;;;;;2101002;28;20379;-71
2022/02/06 07:42:13;;;;;;;;;;;8.40;99.90;;;;;;2100285;28;19927;-72
2022/02/06 07:43:14;;;;;;;;;;;8.40;99.90;;;;;;2103265;28;20330;-72
2022/02/06 07:44:14;;;;;;;;;;;8.40;99.90;;;;;;2099955;28;20013;-72
2022/02/06 07:45:15;;;;;;;;;;;8.40;99.90;;;;;;2103354;28;19912;-72
2022/02/06 07:46:19;;;;;;;;;;;8.40;99.90;;;;;;2101527;28;19920;-72
2022/02/06 07:47:21;;;;;;;;;;;8.40;99.90;;;;;;2102120;28;19920;-72
2022/02/06 07:48:22;;;;;;;;;;;8.40;99.90;;;;;;2104753;28;20296;-72
2022/02/06 07:49:22;;;;;;;;;;;8.40;99.90;;;;;;2101295;28;19954;-72
2022/02/06 07:50:23;;;;;;;;;;;8.40;99.90;;;;;;2100244;28;19915;-72
2022/02/06 07:51:23;;;;;;;;;;;8.40;99.90;;;;;;2091819;28;20404;-72
2022/02/06 07:52:25;;;;;;;;;;;8.40;99.90;;;;;;2094740;28;19917;-72
2022/02/06 07:53:25;;;;;;;;;;;8.40;99.90;;;;;;2102668;28;19912;-72
2022/02/06 07:54:26;;;;;;;;;;;8.40;99.90;;;;;;2103817;28;19923;-72
2022/02/06 07:55:26;;;;;;;;;;;8.40;99.90;;;;;;2100835;28;19913;-72
2022/02/06 07:56:27;;;;;;;;;;;8.40;99.90;;;;;;2101689;28;19912;-72
2022/02/06 07:57:27;;;;;;;;;;;8.40;99.90;;;;;;2098759;28;20848;-72
2022/02/06 07:58:28;;;;;;;;;;;8.40;99.90;;;;;;2101053;28;20295;-72
2022/02/06 07:59:28;;;;;;;;;;;8.40;99.90;;;;;;2091945;28;20526;-72
2022/02/06 08:00:29;;;;;;;;;;;8.40;99.90;;;;;;2096088;28;19909;-73
2022/02/06 08:01:29;;;;;;;;;;;8.40;99.90;;;;;;2096224;28;19915;-72
2022/02/06 08:02:30;;;;;;;;;;;8.40;99.90;;;;;;2094964;28;19931;-72
2022/02/06 08:03:30;;;;;;;;;;;8.40;99.90;;;;;;2104395;28;19990;-72
2022/02/06 08:04:31;;;;;;;;;;;8.40;99.90;;;;;;2102646;28;19908;-72
2022/02/06 08:05:31;;;;;;;;;;;8.40;99.90;;;;;;2113742;27;20364;-72
2022/02/06 08:06:32;;;;;;;;;;;8.40;99.90;;;;;;2106456;28;19920;-72
2022/02/06 08:07:32;;;;;;;;;;;8.40;99.90;;;;;;2092493;28;19913;-72
2022/02/06 08:08:33;;;;;;;;;;;8.50;99.90;;;;;;2100312;28;19970;-72